createdAt,value
2022-10-09T00:01:29.430Z,7.25
2022-10-09T00:03:56.973Z,6.57
2022-10-09T00:06:27.203Z,7.82
2022-10-09T00:08:53.679Z,7.05
2022-10-09T00:11:23.684Z,7.35
2022-10-09T00:13:51.396Z,8.30
2022-10-09T00:16:19.125Z,7.10
2022-10-09T00:18:46.783Z,7.47
2022-10-09T00:21:27.654Z,7.53
2022-10-09T00:23:56.838Z,8.15
2022-10-09T00:26:24.526Z,7.15
2022-10-09T00:28:51.063Z,8.02
2022-10-09T00:31:18.295Z,7.25
2022-10-09T00:33:45.230Z,7.07
2022-10-09T00:36:14.821Z,7.05
2022-10-09T00:38:41.282Z,7.30
2022-10-09T00:41:08.694Z,6.90
2022-10-09T00:43:41.289Z,6.88
2022-10-09T00:46:16.806Z,7.47
2022-10-09T00:48:43.540Z,7.03
2022-10-09T00:51:10.127Z,7.28
2022-10-09T00:53:36.604Z,6.95
2022-10-09T00:56:03.137Z,6.70
2022-10-09T00:58:29.738Z,7.20
2022-10-09T01:00:56.202Z,8.05
2022-10-09T01:03:22.633Z,7.55
2022-10-09T01:05:51.738Z,6.85
2022-10-09T01:08:23.632Z,7.18
2022-10-09T01:11:02.064Z,7.38
2022-10-09T01:13:36.042Z,7.45
2022-10-09T01:16:11.786Z,8.25
2022-10-09T01:18:46.942Z,7.97
2022-10-09T01:21:37.257Z,7.47
2022-10-09T01:24:10.999Z,8.15
2022-10-09T01:26:56.189Z,7.50
2022-10-09T01:29:26.921Z,7.90
2022-10-09T01:31:54.819Z,7.65
2022-10-09T01:34:23.198Z,7.55
2022-10-09T01:36:51.771Z,8.30
2022-10-09T01:39:23.023Z,8.07
2022-10-09T01:41:52.082Z,7.55
2022-10-09T01:44:29.902Z,7.90
2022-10-09T01:46:57.273Z,7.75
2022-10-09T01:49:29.544Z,8.18
2022-10-09T01:52:14.214Z,8.20
2022-10-09T01:54:52.893Z,7.07
2022-10-09T01:57:37.073Z,8.95
2022-10-09T02:00:08.425Z,7.88
2022-10-09T02:02:36.429Z,7.65
2022-10-09T02:05:03.367Z,7.97
2022-10-09T02:07:32.207Z,7.82
2022-10-09T02:10:01.757Z,7.70
2022-10-09T02:12:31.670Z,8.18
2022-10-09T02:14:58.235Z,7.95
2022-10-09T02:17:29.381Z,9.32
2022-10-09T02:20:03.306Z,8.13
2022-10-09T02:22:31.474Z,7.28
2022-10-09T02:25:01.436Z,7.68
2022-10-09T02:27:28.556Z,8.30
2022-10-09T02:29:55.236Z,7.93
2022-10-09T02:32:21.898Z,8.23
2022-10-09T02:34:48.334Z,8.05
2022-10-09T02:37:14.975Z,7.90
2022-10-09T02:39:43.095Z,7.65
2022-10-09T02:42:09.625Z,8.25
2022-10-09T02:44:36.361Z,8.25
2022-10-09T02:47:03.093Z,7.82
2022-10-09T02:49:29.490Z,8.43
2022-10-09T02:51:55.903Z,8.38
2022-10-09T02:54:22.389Z,8.98
2022-10-09T02:56:48.819Z,8.27
2022-10-09T02:59:15.251Z,10.13
2022-10-09T03:01:41.755Z,8.27
2022-10-09T03:04:08.313Z,8.70
2022-10-09T03:06:35.006Z,7.97
2022-10-09T03:09:01.807Z,8.13
2022-10-09T03:11:28.260Z,7.60
2022-10-09T03:13:54.688Z,7.82
2022-10-09T03:16:23.401Z,8.68
2022-10-09T03:18:51.436Z,7.97
2022-10-09T03:21:24.148Z,7.80
2022-10-09T03:23:52.279Z,7.97
2022-10-09T03:26:21.459Z,8.82
2022-10-09T03:28:50.327Z,9.18
2022-10-09T03:31:46.481Z,8.95
2022-10-09T03:34:05.394Z,9.07
2022-10-09T03:36:31.804Z,7.85
2022-10-09T03:38:58.183Z,7.80
2022-10-09T03:41:24.586Z,8.20
2022-10-09T03:43:51.056Z,8.23
2022-10-09T03:46:17.519Z,8.13
2022-10-09T03:48:43.998Z,7.95
2022-10-09T03:51:10.388Z,8.23
2022-10-09T03:53:36.968Z,7.93
2022-10-09T03:56:03.523Z,8.48
2022-10-09T03:58:29.957Z,8.32
2022-10-09T04:00:56.490Z,8.20
2022-10-09T04:03:23.076Z,8.00
2022-10-09T04:05:49.583Z,7.95
2022-10-09T04:08:16.244Z,8.48
2022-10-09T04:10:42.680Z,7.97
2022-10-09T04:13:09.073Z,8.95
2022-10-09T04:15:36.638Z,8.70
2022-10-09T04:18:03.846Z,9.07
2022-10-09T04:20:30.306Z,9.27
2022-10-09T04:22:56.704Z,8.80
2022-10-09T04:25:23.177Z,8.43
2022-10-09T04:27:49.674Z,10.05
2022-10-09T04:30:16.225Z,8.38
2022-10-09T04:32:42.639Z,8.45
2022-10-09T04:35:09.153Z,8.77
2022-10-09T04:37:36.659Z,7.82
2022-10-09T04:40:03.700Z,7.82
2022-10-09T04:42:30.352Z,8.55
2022-10-09T04:44:56.787Z,8.20
2022-10-09T04:47:23.212Z,8.55
2022-10-09T04:49:49.932Z,8.05
2022-10-09T04:52:16.326Z,8.30
2022-10-09T04:54:42.833Z,8.35
2022-10-09T04:57:09.342Z,8.10
2022-10-09T04:59:35.782Z,8.48
2022-10-09T05:02:02.281Z,7.75
2022-10-09T05:04:28.884Z,10.32
2022-10-09T05:06:55.285Z,8.60
2022-10-09T05:09:21.682Z,7.93
2022-10-09T05:11:48.081Z,9.85
2022-10-09T05:14:14.594Z,8.68
2022-10-09T05:17:08.413Z,8.93
2022-10-09T05:19:27.534Z,8.75
2022-10-09T05:21:54.301Z,9.30
2022-10-09T05:24:21.117Z,8.55
2022-10-09T05:26:47.502Z,8.63
2022-10-09T05:29:13.964Z,8.48
2022-10-09T05:31:40.499Z,8.13
2022-10-09T05:34:06.981Z,9.10
2022-10-09T05:36:33.363Z,8.35
2022-10-09T05:39:01.172Z,8.52
2022-10-09T05:41:31.173Z,7.97
2022-10-09T05:44:01.769Z,8.02
2022-10-09T05:46:29.763Z,8.95
2022-10-09T05:48:58.654Z,8.65
2022-10-09T05:51:30.483Z,9.05
2022-10-09T05:53:57.837Z,8.13
2022-10-09T05:56:27.493Z,8.45
2022-10-09T05:58:59.269Z,8.93
2022-10-09T06:01:28.314Z,8.80
2022-10-09T06:03:57.048Z,8.90
2022-10-09T06:06:26.860Z,10.38
2022-10-09T06:08:54.027Z,8.75
2022-10-09T06:11:28.310Z,8.80
2022-10-09T06:13:56.118Z,9.05
2022-10-09T06:16:25.571Z,10.82
2022-10-09T06:18:53.180Z,8.98
2022-10-09T06:21:20.218Z,9.00
2022-10-09T06:23:52.029Z,8.95
2022-10-09T06:26:19.301Z,8.07
2022-10-09T06:28:46.050Z,8.57
2022-10-09T06:31:14.755Z,8.60
2022-10-09T06:33:43.093Z,7.97
2022-10-09T06:36:12.899Z,8.00
2022-10-09T06:38:39.959Z,8.98
2022-10-09T06:41:08.708Z,8.90
2022-10-09T06:43:35.407Z,8.38
2022-10-09T06:46:04.756Z,8.82
2022-10-09T06:48:32.584Z,8.90
2022-10-09T06:51:06.338Z,9.38
2022-10-09T06:53:37.826Z,9.25
2022-10-09T06:56:04.830Z,8.65
2022-10-09T06:58:32.020Z,8.40
2022-10-09T07:01:13.894Z,8.45
2022-10-09T07:03:42.735Z,9.73
2022-10-09T07:06:21.084Z,9.30
2022-10-09T07:08:50.200Z,9.75
2022-10-09T07:11:20.977Z,9.55
2022-10-09T07:13:48.859Z,9.65
2022-10-09T07:16:19.664Z,9.85
2022-10-09T07:18:46.163Z,8.68
2022-10-09T07:21:12.588Z,11.00
2022-10-09T07:23:39.039Z,9.98
2022-10-09T07:26:17.364Z,9.88
2022-10-09T07:28:44.697Z,10.07
2022-10-09T07:31:11.738Z,10.00
2022-10-09T07:33:38.747Z,10.35
2022-10-09T07:36:06.496Z,9.63
2022-10-09T07:38:33.071Z,9.70
2022-10-09T07:41:01.726Z,10.32
2022-10-09T07:43:28.247Z,10.32
2022-10-09T07:45:58.734Z,11.35
2022-10-09T07:48:25.294Z,10.13
2022-10-09T07:50:51.707Z,10.95
2022-10-09T07:53:18.221Z,10.45
2022-10-09T07:55:48.867Z,10.38
2022-10-09T07:58:16.640Z,9.32
2022-10-09T08:00:44.331Z,11.40
2022-10-09T08:03:11.142Z,10.75
2022-10-09T08:05:37.583Z,10.55
2022-10-09T08:08:04.097Z,9.70
2022-10-09T08:10:31.220Z,9.27
2022-10-09T08:12:57.677Z,9.40
2022-10-09T08:15:24.388Z,9.57
2022-10-09T08:17:54.771Z,8.25
2022-10-09T08:20:21.658Z,9.07
2022-10-09T08:22:48.483Z,9.57
2022-10-09T08:25:15.109Z,8.65
2022-10-09T08:27:41.524Z,9.15
2022-10-09T08:30:08.585Z,9.48
2022-10-09T08:32:35.007Z,8.50
2022-10-09T08:35:01.583Z,7.85
2022-10-09T08:37:27.986Z,7.97
2022-10-09T08:39:54.402Z,7.20
2022-10-09T08:42:32.327Z,7.82
2022-10-09T08:44:58.825Z,6.57
2022-10-09T08:47:28.325Z,5.95
2022-10-09T08:50:10.795Z,6.47
2022-10-09T08:53:02.322Z,6.57
2022-10-09T08:55:33.015Z,6.75
2022-10-09T08:58:05.133Z,5.60
2022-10-09T09:00:45.960Z,6.13
2022-10-09T09:03:44.795Z,7.45
2022-10-09T09:06:39.286Z,6.22
2022-10-09T09:09:40.343Z,8.95
2022-10-09T09:12:21.932Z,5.57
2022-10-09T09:15:25.621Z,5.22
2022-10-09T09:18:30.289Z,5.25
2022-10-09T09:21:10.614Z,4.18
2022-10-09T09:23:42.459Z,4.30
2022-10-09T09:26:21.595Z,4.25
2022-10-09T09:28:52.895Z,4.00
2022-10-09T09:31:30.284Z,3.97
2022-10-09T09:34:14.691Z,2.58
2022-10-09T09:36:54.065Z,3.53
2022-10-09T09:40:08.300Z,2.65
2022-10-09T09:42:10.944Z,3.22
2022-10-09T09:44:42.897Z,3.38
2022-10-09T09:47:15.955Z,2.53
2022-10-09T09:49:57.767Z,2.90
2022-10-09T09:52:28.356Z,2.80
2022-10-09T09:54:57.335Z,2.67
2022-10-09T09:57:37.264Z,2.63
2022-10-09T10:00:15.994Z,2.80
2022-10-09T10:02:42.566Z,2.80
2022-10-09T10:05:26.222Z,3.10
2022-10-09T10:07:53.274Z,2.67
2022-10-09T10:10:27.361Z,2.80
2022-10-09T10:13:00.200Z,2.88
2022-10-09T10:15:27.994Z,1.73
2022-10-09T10:17:57.301Z,3.50
2022-10-09T10:20:23.958Z,2.67
2022-10-09T10:22:53.068Z,3.67
2022-10-09T10:25:23.440Z,3.05
2022-10-09T10:27:55.445Z,2.47
2022-10-09T10:30:21.916Z,3.03
2022-10-09T10:33:17.626Z,2.90
2022-10-09T10:35:45.624Z,2.80
2022-10-09T10:38:39.437Z,2.85
2022-10-09T10:41:12.020Z,2.40
2022-10-09T10:43:43.595Z,2.75
2022-10-09T10:46:17.904Z,2.70
2022-10-09T10:48:47.240Z,1.58
2022-10-09T10:51:13.646Z,2.35
2022-10-09T10:53:58.319Z,2.42
2022-10-09T10:56:48.469Z,2.10
2022-10-09T10:59:46.013Z,2.17
2022-10-09T11:02:18.187Z,2.10
2022-10-09T11:05:22.997Z,3.00
2022-10-09T11:08:08.752Z,2.40
2022-10-09T11:10:55.569Z,2.17
2022-10-09T11:13:34.875Z,2.50
2022-10-09T11:16:21.992Z,2.13
2022-10-09T11:18:57.597Z,1.92
2022-10-09T11:21:42.835Z,2.38
2022-10-09T11:24:30.992Z,2.15
2022-10-09T11:27:17.497Z,2.38
2022-10-09T11:29:51.307Z,2.50
2022-10-09T11:32:28.511Z,1.92
2022-10-09T11:34:59.512Z,1.60
2022-10-09T11:37:30.917Z,2.30
2022-10-09T11:39:57.351Z,2.22
2022-10-09T11:42:26.280Z,1.70
2022-10-09T11:45:14.617Z,2.03
2022-10-09T11:48:02.901Z,2.10
2022-10-09T11:50:51.304Z,1.70
2022-10-09T11:53:39.843Z,1.88
2022-10-09T11:56:21.356Z,1.73
2022-10-09T11:59:07.529Z,1.80
2022-10-09T12:01:39.746Z,1.70
2022-10-09T12:04:37.363Z,1.38
2022-10-09T12:07:12.500Z,1.58
2022-10-09T12:09:44.541Z,1.50
2022-10-09T12:12:16.916Z,1.60
2022-10-09T12:14:46.756Z,1.73
2022-10-09T12:17:38.400Z,1.50
2022-10-09T12:20:18.262Z,1.73
2022-10-09T12:23:07.382Z,1.77
2022-10-09T12:25:45.622Z,1.83
2022-10-09T12:28:30.751Z,1.67
2022-10-09T12:31:01.053Z,1.80
2022-10-09T12:33:39.390Z,2.00
2022-10-09T12:36:22.186Z,2.05
2022-10-09T12:38:48.654Z,1.58
2022-10-09T12:41:21.875Z,2.05
2022-10-09T12:43:51.136Z,1.80
2022-10-09T12:46:39.165Z,1.30
2022-10-09T12:49:18.875Z,1.35
2022-10-09T12:51:53.841Z,1.40
2022-10-09T12:54:24.969Z,1.30
2022-10-09T12:56:53.372Z,1.50
2022-10-09T12:59:20.688Z,1.70
2022-10-09T13:01:48.780Z,1.42
2022-10-09T13:04:33.118Z,1.65
2022-10-09T13:07:05.647Z,1.33
2022-10-09T13:09:38.298Z,1.65
2022-10-09T13:12:09.882Z,1.58
2022-10-09T13:14:42.920Z,1.27
2022-10-09T13:17:33.491Z,1.50
2022-10-09T13:20:21.325Z,1.65
2022-10-09T13:22:55.375Z,1.48
2022-10-09T13:25:23.175Z,1.52
2022-10-09T13:27:49.745Z,1.60
2022-10-09T13:30:16.531Z,1.33
2022-10-09T13:32:42.961Z,1.67
2022-10-09T13:35:09.496Z,1.40
2022-10-09T13:37:35.950Z,1.52
2022-10-09T13:40:02.606Z,1.98
2022-10-09T13:42:39.468Z,1.48
2022-10-09T13:45:06.462Z,1.42
2022-10-09T13:47:33.182Z,1.70
2022-10-09T13:49:59.639Z,1.58
2022-10-09T13:52:26.164Z,1.73
2022-10-09T13:54:52.617Z,1.67
2022-10-09T13:57:19.175Z,1.70
2022-10-09T13:59:45.665Z,1.58
2022-10-09T14:02:12.586Z,1.70
2022-10-09T14:04:39.318Z,1.63
2022-10-09T14:07:05.739Z,1.95
2022-10-09T14:09:32.180Z,1.73
2022-10-09T14:11:58.855Z,1.70
2022-10-09T14:14:25.271Z,1.67
2022-10-09T14:16:51.818Z,1.65
2022-10-09T14:19:18.399Z,1.60
2022-10-09T14:21:46.719Z,1.55
2022-10-09T14:24:14.380Z,1.58
2022-10-09T14:26:41.255Z,2.05
2022-10-09T14:29:07.781Z,2.03
2022-10-09T14:31:34.270Z,1.60
2022-10-09T14:34:00.803Z,1.50
2022-10-09T14:36:28.118Z,1.50
2022-10-09T14:38:55.300Z,1.55
2022-10-09T14:41:22.481Z,1.70
2022-10-09T14:43:56.080Z,2.00
2022-10-09T14:46:23.074Z,1.58
2022-10-09T14:48:50.017Z,1.65
2022-10-09T14:51:18.979Z,1.88
2022-10-09T14:53:46.303Z,1.48
2022-10-09T14:56:21.060Z,1.58
2022-10-09T14:58:48.183Z,1.70
2022-10-09T15:01:18.133Z,1.58
2022-10-09T15:03:46.034Z,1.80
2022-10-09T15:06:13.036Z,1.40
2022-10-09T15:08:42.118Z,1.67
2022-10-09T15:11:10.226Z,2.03
2022-10-09T15:13:37.051Z,1.85
2022-10-09T15:16:15.131Z,1.50
2022-10-09T15:18:41.896Z,1.48
2022-10-09T15:21:20.291Z,1.48
2022-10-09T15:23:47.295Z,1.50
2022-10-09T15:26:14.155Z,1.48
2022-10-09T15:28:42.351Z,1.80
2022-10-09T15:31:36.701Z,1.60
2022-10-09T15:34:04.748Z,1.48
2022-10-09T15:36:34.386Z,1.70
2022-10-09T15:39:05.478Z,1.45
2022-10-09T15:41:34.539Z,1.85
2022-10-09T15:44:04.122Z,1.50
2022-10-09T15:46:31.345Z,1.70
2022-10-09T15:48:58.275Z,2.08
2022-10-09T15:51:25.558Z,1.70
2022-10-09T15:53:52.592Z,1.73
2022-10-09T15:56:24.656Z,1.70
2022-10-09T15:58:52.895Z,1.83
2022-10-09T16:01:20.244Z,1.85
2022-10-09T16:03:46.764Z,1.92
2022-10-09T16:06:20.990Z,1.50
2022-10-09T16:08:48.002Z,2.05
2022-10-09T16:11:19.155Z,1.83
2022-10-09T16:13:48.555Z,1.83
2022-10-09T16:16:20.852Z,2.10
2022-10-09T16:18:47.604Z,2.20
2022-10-09T16:21:19.876Z,3.05
2022-10-09T16:23:46.861Z,3.13
2022-10-09T16:26:16.824Z,3.03
2022-10-09T16:28:44.112Z,2.92
2022-10-09T16:31:21.997Z,3.20
2022-10-09T16:33:48.609Z,2.78
2022-10-09T16:36:15.395Z,3.60
2022-10-09T16:38:42.193Z,3.03
2022-10-09T16:41:11.832Z,2.90
2022-10-09T16:43:39.432Z,2.55
2022-10-09T16:46:16.950Z,2.45
2022-10-09T16:48:43.461Z,2.17
2022-10-09T16:51:11.980Z,2.63
2022-10-09T16:53:38.488Z,2.47
2022-10-09T16:56:12.325Z,2.13
2022-10-09T16:58:40.035Z,2.50
2022-10-09T17:01:09.930Z,2.60
2022-10-09T17:03:40.177Z,2.80
2022-10-09T17:06:12.724Z,2.40
2022-10-09T17:08:39.264Z,2.95
2022-10-09T17:11:10.430Z,3.33
2022-10-09T17:13:37.528Z,5.32
2022-10-09T17:16:08.612Z,4.40
2022-10-09T17:18:36.546Z,3.45
2022-10-09T17:21:08.054Z,3.40
2022-10-09T17:23:36.046Z,3.90
2022-10-09T17:26:16.947Z,4.05
2022-10-09T17:28:44.269Z,6.18
2022-10-09T17:31:14.266Z,10.43
2022-10-09T17:33:42.893Z,11.15
2022-10-09T17:36:10.222Z,16.13
2022-10-09T17:38:37.300Z,9.60
2022-10-09T17:41:08.057Z,13.27
2022-10-09T17:43:34.699Z,10.75
2022-10-09T17:46:01.587Z,10.30
2022-10-09T17:48:29.118Z,7.00
2022-10-09T17:50:57.789Z,5.43
2022-10-09T17:53:25.307Z,4.18
2022-10-09T17:55:53.578Z,11.32
2022-10-09T17:58:21.352Z,14.27
2022-10-09T18:00:48.475Z,21.83
2022-10-09T18:03:16.255Z,14.60
2022-10-09T18:05:45.435Z,7.97
2022-10-09T18:08:12.975Z,8.82
2022-10-09T18:10:39.564Z,4.38
2022-10-09T18:13:09.886Z,5.78
2022-10-09T18:15:37.716Z,7.40
2022-10-09T18:18:04.780Z,7.38
2022-10-09T18:20:33.196Z,9.93
2022-10-09T18:22:59.646Z,7.70
2022-10-09T18:25:26.161Z,6.80
2022-10-09T18:27:52.881Z,6.03
2022-10-09T18:30:20.639Z,5.85
2022-10-09T18:32:48.374Z,6.15
2022-10-09T18:35:15.444Z,5.03
2022-10-09T18:37:41.900Z,5.63
2022-10-09T18:40:09.015Z,4.10
2022-10-09T18:42:35.928Z,5.13
2022-10-09T18:45:03.135Z,6.00
2022-10-09T18:47:33.349Z,6.10
2022-10-09T18:50:02.683Z,5.53
2022-10-09T18:52:30.158Z,5.80
2022-10-09T18:54:58.399Z,6.45
2022-10-09T18:57:26.404Z,5.63
2022-10-09T18:59:54.337Z,6.75
2022-10-09T19:02:25.966Z,5.32
2022-10-09T19:04:56.386Z,4.55
2022-10-09T19:07:22.825Z,4.13
2022-10-09T19:09:53.569Z,4.55
2022-10-09T19:12:21.415Z,4.07
2022-10-09T19:14:47.890Z,3.80
2022-10-09T19:17:14.446Z,4.10
2022-10-09T19:19:41.012Z,4.32
2022-10-09T19:22:10.607Z,4.10
2022-10-09T19:24:39.312Z,4.05
2022-10-09T19:27:05.739Z,5.18
2022-10-09T19:29:32.396Z,5.07
2022-10-09T19:31:58.855Z,5.15
2022-10-09T19:34:25.325Z,5.97
2022-10-09T19:36:51.877Z,7.47
2022-10-09T19:39:19.416Z,10.02
2022-10-09T19:41:48.596Z,9.75
2022-10-09T19:44:15.214Z,9.27
2022-10-09T19:46:41.726Z,12.73
2022-10-09T19:49:09.189Z,7.00
2022-10-09T19:51:36.629Z,6.07
2022-10-09T19:54:05.218Z,7.05
2022-10-09T19:56:33.981Z,6.80
2022-10-09T19:59:02.534Z,6.20
2022-10-09T20:01:30.075Z,5.50
2022-10-09T20:03:58.443Z,6.03
2022-10-09T20:06:25.611Z,5.13
2022-10-09T20:08:52.177Z,6.05
2022-10-09T20:11:20.433Z,5.15
2022-10-09T20:13:50.957Z,5.80
2022-10-09T20:16:19.998Z,6.57
2022-10-09T20:18:46.442Z,6.45
2022-10-09T20:21:15.700Z,10.60
2022-10-09T20:23:44.163Z,10.10
2022-10-09T20:26:16.468Z,11.00
2022-10-09T20:28:43.961Z,9.93
2022-10-09T20:31:17.939Z,7.43
2022-10-09T20:33:45.907Z,7.70
2022-10-09T20:36:22.803Z,7.20
2022-10-09T20:38:49.601Z,11.88
2022-10-09T20:41:16.205Z,12.85
2022-10-09T20:43:42.667Z,9.95
2022-10-09T20:46:14.144Z,8.50
2022-10-09T20:48:44.473Z,6.93
2022-10-09T20:51:10.962Z,6.10
2022-10-09T20:53:37.483Z,6.53
2022-10-09T20:56:06.662Z,7.75
2022-10-09T20:58:34.635Z,7.72
2022-10-09T21:01:05.889Z,8.30
2022-10-09T21:03:33.032Z,7.50
2022-10-09T21:06:03.155Z,6.90
2022-10-09T21:08:29.827Z,7.18
2022-10-09T21:10:56.333Z,6.70
2022-10-09T21:13:22.818Z,8.43
2022-10-09T21:15:50.195Z,6.85
2022-10-09T21:18:18.714Z,7.65
2022-10-09T21:20:47.115Z,9.27
2022-10-09T21:23:15.505Z,11.43
2022-10-09T21:25:49.747Z,10.38
2022-10-09T21:28:17.824Z,9.45
2022-10-09T21:30:44.496Z,8.88
2022-10-09T21:33:11.027Z,10.52
2022-10-09T21:35:42.839Z,8.38
2022-10-09T21:38:12.995Z,15.80
2022-10-09T21:40:40.061Z,14.27
2022-10-09T21:43:06.980Z,12.38
2022-10-09T21:45:33.645Z,11.13
2022-10-09T21:48:00.186Z,9.60
2022-10-09T21:50:26.772Z,16.40
2022-10-09T21:52:53.431Z,18.60
2022-10-09T21:55:20.227Z,15.50
2022-10-09T21:57:46.787Z,13.95
2022-10-09T22:00:13.411Z,13.93
2022-10-09T22:02:39.861Z,10.05
2022-10-09T22:05:07.913Z,8.18
2022-10-09T22:07:34.569Z,7.35
2022-10-09T22:10:00.986Z,7.07
2022-10-09T22:12:27.524Z,7.68
2022-10-09T22:14:55.264Z,10.30
2022-10-09T22:17:21.723Z,13.63
2022-10-09T22:19:48.304Z,13.90
2022-10-09T22:22:14.761Z,10.70
2022-10-09T22:24:41.202Z,9.50
2022-10-09T22:27:07.649Z,8.95
2022-10-09T22:29:34.607Z,6.05
2022-10-09T22:32:01.011Z,6.05
2022-10-09T22:34:27.589Z,5.95
2022-10-09T22:36:54.001Z,6.20
2022-10-09T22:39:20.426Z,6.38
2022-10-09T22:41:46.828Z,6.15
2022-10-09T22:44:13.283Z,5.63
2022-10-09T22:46:41.696Z,5.88
2022-10-09T22:49:11.747Z,6.25
2022-10-09T22:51:38.178Z,5.80
2022-10-09T22:54:05.455Z,6.53
2022-10-09T22:56:39.022Z,6.13
2022-10-09T22:59:07.277Z,5.95
2022-10-09T23:01:35.560Z,6.00
2022-10-09T23:04:05.370Z,6.57
2022-10-09T23:06:31.791Z,6.18
2022-10-09T23:08:59.049Z,6.65
2022-10-09T23:11:26.387Z,6.10
2022-10-09T23:13:55.004Z,6.38
2022-10-09T23:16:21.998Z,6.25
2022-10-09T23:18:48.742Z,6.60
2022-10-09T23:21:17.585Z,5.68
2022-10-09T23:23:45.056Z,6.43
2022-10-09T23:26:15.171Z,6.65
2022-10-09T23:28:42.391Z,5.75
2022-10-09T23:31:10.258Z,5.95
2022-10-09T23:33:39.483Z,6.05
2022-10-09T23:36:07.167Z,5.90
2022-10-09T23:38:34.133Z,7.38
2022-10-09T23:41:07.093Z,6.88
2022-10-09T23:43:36.146Z,6.53
2022-10-09T23:46:04.626Z,6.70
2022-10-09T23:48:31.209Z,6.18
2022-10-09T23:50:57.916Z,5.82
2022-10-09T23:53:26.137Z,5.65
2022-10-09T23:55:53.876Z,6.55
2022-10-09T23:58:21.232Z,6.63
